Time;durP1;ratioP1;P1;durP2;ratioP2;P2;SDS_P1;SDS_P2;PMS_P1;PMS_P2;Temp;Humidity;BMP_temperature;BMP_pressure;BME280_temperature;BME280_humidity;BME280_pressure;Samples;Min_cycle;Max_cycle;Signal;HPM_P1;HPM_P2
2023/09/08 00:01:15;;;;;;;3.23;3.07;;;24.30;50.20;;;;;;5009166;28;20518;-66
2023/09/08 00:03:41;;;;;;;3.27;3.17;;;24.30;50.30;;;;;;5010001;28;20222;-64
2023/09/08 00:06:06;;;;;;;3.37;3.17;;;24.30;50.30;;;;;;5009748;28;20247;-72
2023/09/08 00:08:32;;;;;;;3.70;3.50;;;24.30;50.30;;;;;;4999580;28;20551;-65
2023/09/08 00:10:58;;;;;;;3.40;3.30;;;24.30;50.30;;;;;;5010304;28;20670;-65
2023/09/08 00:13:23;;;;;;;3.40;3.20;;;24.30;50.30;;;;;;5009464;28;20227;-70
2023/09/08 00:15:49;;;;;;;3.43;3.23;;;24.30;50.30;;;;;;5010731;28;20227;-67
2023/09/08 00:18:14;;;;;;;3.30;3.10;;;24.30;50.20;;;;;;5006418;28;20218;-72
2023/09/08 00:20:41;;;;;;;3.40;3.20;;;24.30;50.30;;;;;;4996059;28;20506;-72
2023/09/08 00:23:07;;;;;;;3.03;2.93;;;24.30;50.30;;;;;;5009063;28;20700;-67
2023/09/08 00:25:34;;;;;;;3.93;3.73;;;24.30;50.50;;;;;;5010091;28;20471;-64
2023/09/08 00:28:00;;;;;;;3.13;3.03;;;24.30;50.30;;;;;;5010101;28;20461;-70
2023/09/08 00:30:25;;;;;;;3.47;3.27;;;24.30;50.30;;;;;;5010955;28;20466;-65
2023/09/08 00:32:51;;;;;;;3.50;3.20;;;24.30;50.30;;;;;;5009381;28;20640;-67
2023/09/08 00:35:17;;;;;;;3.77;3.57;;;24.30;50.30;;;;;;5010840;28;20582;-70
2023/09/08 00:37:42;;;;;;;3.57;3.37;;;24.30;50.30;;;;;;5011214;28;20229;-65
2023/09/08 00:40:08;;;;;;;3.03;2.87;;;24.30;50.30;;;;;;5005439;28;20641;-67
2023/09/08 00:42:34;;;;;;;3.40;3.20;;;24.30;50.40;;;;;;5010000;28;20385;-66
2023/09/08 00:44:59;;;;;;;3.60;3.40;;;24.30;50.30;;;;;;5009763;28;20548;-72
2023/09/08 00:47:25;;;;;;;3.30;3.17;;;24.30;50.30;;;;;;5009273;28;20223;-64
2023/09/08 00:49:51;;;;;;;3.10;3.00;;;24.30;50.30;;;;;;5007493;28;20230;-64
2023/09/08 00:52:17;;;;;;;2.90;2.80;;;24.30;50.30;;;;;;5008762;28;20306;-68
2023/09/08 00:54:42;;;;;;;3.47;3.27;;;24.30;50.30;;;;;;5010453;28;20965;-64
2023/09/08 00:57:09;;;;;;;3.10;3.00;;;24.30;50.30;;;;;;5013451;28;20595;-64
2023/09/08 00:59:35;;;;;;;3.60;3.40;;;24.30;50.30;;;;;;5014422;28;20569;-65
2023/09/08 01:02:02;;;;;;;3.10;3.00;;;24.30;51.10;;;;;;5016150;28;20448;-65
2023/09/08 01:04:28;;;;;;;3.10;2.90;;;24.30;50.30;;;;;;5017024;28;20503;-63
2023/09/08 01:06:55;;;;;;;3.30;3.10;;;24.30;50.30;;;;;;5014785;28;20506;-63
2023/09/08 01:09:21;;;;;;;3.37;3.17;;;24.30;50.30;;;;;;5005112;28;20472;-64
2023/09/08 01:11:47;;;;;;;3.33;3.13;;;24.30;50.30;;;;;;4992890;28;20510;-67
2023/09/08 01:14:13;;;;;;;3.00;2.90;;;24.30;50.30;;;;;;5009616;28;20518;-65
2023/09/08 01:16:40;;;;;;;3.13;3.03;;;24.30;50.30;;;;;;5009511;28;20467;-65
2023/09/08 01:19:10;;;;;;;3.00;2.80;;;24.30;50.30;;;;;;5008664;28;20555;-73
2023/09/08 01:22:13;;;;;;;3.67;3.47;;;24.30;50.30;;;;;;4994655;28;20620;-65
2023/09/08 01:25:06;;;;;;;3.50;3.30;;;24.30;50.30;;;;;;5007953;28;20503;-63
2023/09/08 01:27:37;;;;;;;3.00;2.90;;;24.30;50.30;;;;;;5007922;28;20579;-64
2023/09/08 01:30:05;;;;;;;3.57;3.37;;;24.30;50.30;;;;;;5004467;28;22159;-64
2023/09/08 01:32:31;;;;;;;3.20;3.07;;;24.30;50.30;;;;;;5009572;28;20556;-66
2023/09/08 01:34:59;;;;;;;3.13;2.93;;;24.30;50.30;;;;;;5005277;28;20499;-66
2023/09/08 01:37:25;;;;;;;3.70;3.50;;;24.30;50.30;;;;;;5007135;28;20506;-69
2023/09/08 01:39:50;;;;;;;2.80;2.70;;;24.30;51.10;;;;;;5005877;28;20475;-67
2023/09/08 01:42:16;;;;;;;3.40;3.20;;;24.30;50.30;;;;;;5007371;28;20754;-69
2023/09/08 01:44:42;;;;;;;3.57;3.37;;;24.30;50.30;;;;;;5006915;28;20377;-65
2023/09/08 01:47:07;;;;;;;3.00;2.80;;;24.30;50.30;;;;;;5006039;28;20226;-70
2023/09/08 01:49:33;;;;;;;2.73;2.63;;;24.30;50.30;;;;;;5007776;28;20247;-67
2023/09/08 01:51:58;;;;;;;3.70;3.50;;;24.30;50.30;;;;;;5006103;28;20306;-65
2023/09/08 01:54:24;;;;;;;3.87;3.67;;;24.30;50.30;;;;;;5009383;28;20458;-64
2023/09/08 01:56:51;;;;;;;3.30;3.10;;;24.30;50.30;;;;;;5007536;28;20226;-69
2023/09/08 01:59:16;;;;;;;3.40;3.20;;;24.30;50.30;;;;;;5007486;28;20324;-63
2023/09/08 02:01:42;;;;;;;3.40;3.20;;;24.30;50.30;;;;;;5005549;28;20855;-66
2023/09/08 02:04:08;;;;;;;3.37;3.17;;;24.30;50.40;;;;;;5008456;28;20660;-64
2023/09/08 02:06:33;;;;;;;3.73;3.53;;;24.30;50.40;;;;;;5005386;28;20218;-70
2023/09/08 02:08:59;;;;;;;3.27;3.17;;;24.30;50.50;;;;;;5008904;28;20234;-70
2023/09/08 02:11:24;;;;;;;3.47;3.37;;;24.30;50.30;;;;;;5006132;28;20248;-64
2023/09/08 02:13:50;;;;;;;3.40;3.20;;;24.30;50.40;;;;;;5006294;28;20349;-68
2023/09/08 02:16:16;;;;;;;3.33;3.13;;;24.30;50.40;;;;;;5008702;28;20223;-66
2023/09/08 02:18:43;;;;;;;3.63;3.43;;;24.30;50.30;;;;;;5002871;28;20252;-73
2023/09/08 02:21:08;;;;;;;3.17;2.97;;;24.30;50.40;;;;;;5008208;28;20258;-64
2023/09/08 02:23:34;;;;;;;3.00;2.90;;;24.30;50.40;;;;;;5007925;28;20879;-65
2023/09/08 02:25:59;;;;;;;3.00;2.90;;;24.30;50.40;;;;;;5011575;28;20230;-67
2023/09/08 02:28:25;;;;;;;3.17;3.07;;;24.20;50.30;;;;;;5006692;28;20234;-69
2023/09/08 02:30:51;;;;;;;3.40;3.20;;;24.30;50.50;;;;;;5009459;28;20245;-66
2023/09/08 02:33:16;;;;;;;3.27;3.13;;;24.30;50.40;;;;;;5008347;28;20862;-64
2023/09/08 02:35:42;;;;;;;3.63;3.43;;;24.20;50.40;;;;;;5006694;28;20227;-63
2023/09/08 02:38:08;;;;;;;3.53;3.33;;;24.30;50.40;;;;;;5007959;28;20219;-72
2023/09/08 02:40:36;;;;;;;3.00;2.73;;;24.30;50.50;;;;;;5007507;28;20231;-73
2023/09/08 02:43:03;;;;;;;3.30;3.10;;;24.30;50.40;;;;;;5009825;28;20270;-65
2023/09/08 02:45:29;;;;;;;3.37;3.20;;;24.30;50.40;;;;;;5009060;28;20475;-66
2023/09/08 02:47:54;;;;;;;3.50;3.30;;;24.30;50.40;;;;;;5007844;28;20443;-65
2023/09/08 02:50:20;;;;;;;3.40;3.20;;;24.30;50.30;;;;;;5002729;28;20238;-69
2023/09/08 02:52:46;;;;;;;3.10;3.00;;;24.20;50.30;;;;;;5007437;28;20250;-64
2023/09/08 02:55:12;;;;;;;3.13;2.93;;;24.30;50.40;;;;;;5006825;28;20558;-64
2023/09/08 02:57:38;;;;;;;3.43;3.23;;;24.20;50.40;;;;;;5005683;28;20413;-65
2023/09/08 03:00:05;;;;;;;2.77;2.67;;;24.30;50.40;;;;;;4994444;28;20263;-74
2023/09/08 03:02:31;;;;;;;3.77;3.57;;;24.30;50.40;;;;;;5008292;28;20499;-66
2023/09/08 03:04:56;;;;;;;2.97;2.87;;;24.30;50.40;;;;;;5007159;28;20517;-63
2023/09/08 03:07:22;;;;;;;3.57;3.47;;;24.30;50.40;;;;;;5007608;28;20235;-66
2023/09/08 03:09:47;;;;;;;3.17;3.07;;;24.30;50.50;;;;;;5006303;28;20230;-64
2023/09/08 03:12:13;;;;;;;3.80;3.60;;;24.30;50.30;;;;;;5004751;28;20218;-71
2023/09/08 03:14:39;;;;;;;3.00;2.90;;;24.20;50.40;;;;;;5009315;28;20708;-64
2023/09/08 03:17:04;;;;;;;3.30;3.20;;;24.20;50.30;;;;;;5006716;28;20562;-65
2023/09/08 03:19:30;;;;;;;3.40;3.20;;;24.30;50.40;;;;;;5007709;28;20227;-65
2023/09/08 03:21:56;;;;;;;3.47;3.33;;;24.20;50.30;;;;;;5005154;28;20234;-72
2023/09/08 03:24:21;;;;;;;3.40;3.20;;;24.20;50.40;;;;;;4994786;28;20235;-67
2023/09/08 03:26:47;;;;;;;3.20;3.10;;;24.30;51.10;;;;;;5009009;28;20309;-69
2023/09/08 03:29:13;;;;;;;3.57;3.37;;;24.20;50.30;;;;;;5007202;28;20345;-64
2023/09/08 03:31:39;;;;;;;2.93;2.83;;;24.20;50.30;;;;;;5005944;28;20234;-64
2023/09/08 03:34:04;;;;;;;3.00;2.90;;;24.20;50.30;;;;;;5008141;28;20312;-71
2023/09/08 03:36:30;;;;;;;3.80;3.60;;;24.20;51.10;;;;;;5006296;28;20517;-68
2023/09/08 03:38:58;;;;;;;3.20;3.03;;;24.20;50.30;;;;;;5007597;28;20223;-66
2023/09/08 03:41:23;;;;;;;3.70;3.50;;;24.30;50.40;;;;;;5008072;28;20543;-64
2023/09/08 03:43:49;;;;;;;3.47;3.27;;;24.20;50.30;;;;;;5006004;28;20995;-64
2023/09/08 03:46:14;;;;;;;3.00;2.90;;;24.20;50.30;;;;;;5008612;28;20284;-67
2023/09/08 03:48:40;;;;;;;3.20;2.97;;;24.20;50.30;;;;;;5005837;28;20238;-68
2023/09/08 03:51:05;;;;;;;3.53;3.33;;;24.20;50.30;;;;;;5008027;28;20321;-67
2023/09/08 03:53:31;;;;;;;3.80;3.60;;;24.20;50.30;;;;;;5009871;28;20250;-65
2023/09/08 03:55:57;;;;;;;2.97;2.87;;;24.30;50.40;;;;;;5009934;28;20285;-65
2023/09/08 03:58:22;;;;;;;3.60;3.40;;;24.20;50.30;;;;;;5010529;28;21025;-65
2023/09/08 04:00:48;;;;;;;3.10;3.00;;;24.20;50.30;;;;;;5008570;28;20269;-67
2023/09/08 04:03:14;;;;;;;3.50;3.30;;;24.20;50.30;;;;;;5008362;28;21985;-63
2023/09/08 04:05:39;;;;;;;3.47;3.27;;;24.20;50.30;;;;;;5009166;28;20222;-64
2023/09/08 04:08:05;;;;;;;3.50;3.30;;;24.30;50.40;;;;;;5011563;28;20226;-69
2023/09/08 04:10:31;;;;;;;3.20;2.97;;;24.20;50.30;;;;;;5008122;28;20329;-68
2023/09/08 04:12:56;;;;;;;3.23;3.03;;;24.20;50.40;;;;;;5007064;28;20313;-67
2023/09/08 04:15:22;;;;;;;3.13;3.03;;;24.30;50.30;;;;;;5010730;28;21100;-70
2023/09/08 04:17:48;;;;;;;3.80;3.60;;;24.30;50.30;;;;;;5015122;28;20226;-65
2023/09/08 04:20:16;;;;;;;3.77;3.57;;;24.30;50.20;;;;;;5009038;28;20481;-68
2023/09/08 04:22:42;;;;;;;4.20;4.00;;;24.30;50.20;;;;;;5011695;28;20597;-65
2023/09/08 04:25:08;;;;;;;3.90;3.70;;;24.30;50.20;;;;;;5010789;28;20485;-63
2023/09/08 04:27:35;;;;;;;3.83;3.63;;;24.30;50.20;;;;;;5008346;28;20663;-65
2023/09/08 04:30:00;;;;;;;4.10;3.90;;;24.30;50.10;;;;;;5006559;28;20258;-70
2023/09/08 04:32:26;;;;;;;3.40;3.20;;;24.30;50.10;;;;;;4992668;28;20472;-69
2023/09/08 04:34:51;;;;;;;3.57;3.37;;;24.30;50.10;;;;;;5005411;28;20242;-61
2023/09/08 04:37:17;;;;;;;3.60;3.40;;;24.30;50.20;;;;;;5001378;28;20227;-62
2023/09/08 04:39:43;;;;;;;3.87;3.67;;;24.30;50.10;;;;;;5007900;28;20227;-70
2023/09/08 04:42:09;;;;;;;3.80;3.60;;;24.40;50.20;;;;;;5005731;28;20229;-71
2023/09/08 04:44:34;;;;;;;3.63;3.43;;;24.30;50.10;;;;;;5005729;28;20460;-67
2023/09/08 04:47:00;;;;;;;3.53;3.33;;;24.40;50.20;;;;;;5002161;28;20565;-65
2023/09/08 04:49:26;;;;;;;4.03;3.83;;;24.30;50.00;;;;;;5008562;28;20571;-66
2023/09/08 04:51:54;;;;;;;3.90;3.70;;;24.40;50.20;;;;;;5005953;28;20307;-73
2023/09/08 04:54:19;;;;;;;3.43;3.23;;;24.40;50.20;;;;;;5008214;28;20223;-63
2023/09/08 04:56:45;;;;;;;3.80;3.60;;;24.40;50.10;;;;;;5005283;28;20571;-65
2023/09/08 04:59:11;;;;;;;3.50;3.30;;;24.40;50.10;;;;;;5009395;28;20226;-66
2023/09/08 05:01:37;;;;;;;3.70;3.50;;;24.40;50.10;;;;;;5004905;28;20223;-72
2023/09/08 05:04:04;;;;;;;3.50;3.30;;;24.40;50.10;;;;;;5007740;28;20227;-62
2023/09/08 05:06:29;;;;;;;4.00;3.80;;;24.40;50.10;;;;;;5006352;28;20452;-63
2023/09/08 05:08:55;;;;;;;3.27;3.17;;;24.40;50.00;;;;;;5003149;28;20466;-62
2023/09/08 05:11:20;;;;;;;3.87;3.67;;;24.40;50.00;;;;;;5005087;28;20219;-67
2023/09/08 05:13:46;;;;;;;4.40;4.20;;;24.40;49.90;;;;;;5004546;28;20553;-66
2023/09/08 05:16:12;;;;;;;4.27;4.07;;;24.40;49.90;;;;;;5000081;28;20900;-67
2023/09/08 05:18:41;;;;;;;4.10;3.80;;;24.40;49.80;;;;;;4983647;28;20362;-62
2023/09/08 05:21:07;;;;;;;4.10;3.90;;;24.40;49.80;;;;;;5007397;28;20227;-72
2023/09/08 05:23:33;;;;;;;4.70;4.50;;;24.40;49.70;;;;;;5010767;28;20487;-64
2023/09/08 05:25:59;;;;;;;4.20;3.90;;;24.40;49.60;;;;;;5003675;28;20564;-62
2023/09/08 05:28:25;;;;;;;4.20;4.00;;;24.40;49.60;;;;;;5005520;28;20242;-67
2023/09/08 05:30:53;;;;;;;3.50;3.30;;;24.40;49.50;;;;;;5004800;28;20465;-63
2023/09/08 05:33:19;;;;;;;3.80;3.60;;;24.40;49.50;;;;;;5002420;28;20259;-64
2023/09/08 05:35:45;;;;;;;4.50;4.30;;;24.40;49.50;;;;;;5003465;28;20597;-66
2023/09/08 05:38:11;;;;;;;4.30;4.10;;;24.40;49.50;;;;;;5005130;28;20223;-67
2023/09/08 05:40:37;;;;;;;4.13;3.73;;;24.40;49.50;;;;;;4993967;28;20985;-72
2023/09/08 05:43:03;;;;;;;4.00;3.80;;;24.40;49.50;;;;;;5002959;28;20567;-65
2023/09/08 05:45:31;;;;;;;3.90;3.70;;;24.40;49.60;;;;;;5004329;28;20796;-61
2023/09/08 05:47:57;;;;;;;3.60;3.40;;;24.40;49.50;;;;;;5005164;28;20233;-70
2023/09/08 05:50:22;;;;;;;3.50;3.33;;;24.40;49.60;;;;;;5005644;28;20487;-71
2023/09/08 05:52:48;;;;;;;3.77;3.57;;;24.40;49.60;;;;;;5009686;28;20222;-66
2023/09/08 05:55:13;;;;;;;3.93;3.70;;;24.40;49.60;;;;;;5006017;28;20291;-62
2023/09/08 05:57:40;;;;;;;3.73;3.53;;;24.40;49.60;;;;;;5007692;28;20222;-68
2023/09/08 06:00:06;;;;;;;4.07;3.87;;;24.40;49.60;;;;;;5005540;28;20286;-63
2023/09/08 06:02:32;;;;;;;4.23;3.93;;;24.40;49.60;;;;;;5006280;28;20475;-63
2023/09/08 06:04:58;;;;;;;4.13;3.93;;;24.40;49.60;;;;;;5005779;28;20444;-66
2023/09/08 06:07:23;;;;;;;4.27;3.97;;;24.40;49.70;;;;;;5006650;28;20230;-62
2023/09/08 06:09:49;;;;;;;4.37;4.17;;;24.40;49.60;;;;;;5005761;28;20337;-62
2023/09/08 06:12:14;;;;;;;3.97;3.77;;;24.40;49.60;;;;;;5006209;28;20314;-69
2023/09/08 06:14:40;;;;;;;3.90;3.67;;;24.40;49.70;;;;;;5004021;28;20249;-68
2023/09/08 06:17:05;;;;;;;4.17;3.97;;;24.40;49.70;;;;;;5007685;28;20274;-67
2023/09/08 06:19:31;;;;;;;4.20;3.90;;;24.40;49.70;;;;;;5007368;28;21990;-62
2023/09/08 06:21:56;;;;;;;4.30;4.00;;;24.40;49.70;;;;;;5003952;28;20645;-63
2023/09/08 06:24:22;;;;;;;4.00;3.80;;;24.40;49.60;;;;;;5010053;28;20712;-65
2023/09/08 06:26:49;;;;;;;3.77;3.57;;;24.40;49.70;;;;;;5003019;28;20222;-64
2023/09/08 06:29:15;;;;;;;4.53;4.23;;;24.40;49.70;;;;;;5006470;28;20227;-67
2023/09/08 06:31:40;;;;;;;4.10;3.90;;;24.40;49.70;;;;;;5008194;28;20479;-65
2023/09/08 06:34:06;;;;;;;4.07;3.83;;;24.40;49.70;;;;;;5006510;28;20214;-60
2023/09/08 06:36:31;;;;;;;4.50;4.30;;;24.40;49.60;;;;;;5009881;28;20238;-65
2023/09/08 06:38:57;;;;;;;4.27;4.07;;;24.40;49.80;;;;;;5006831;28;20564;-63
2023/09/08 06:41:23;;;;;;;4.67;4.37;;;24.40;49.70;;;;;;4997657;28;20229;-61
2023/09/08 06:43:49;;;;;;;3.90;3.70;;;24.40;49.60;;;;;;5007481;28;20218;-62
2023/09/08 06:46:15;;;;;;;3.93;3.73;;;24.40;49.60;;;;;;5007873;28;20469;-67
2023/09/08 06:48:40;;;;;;;4.00;3.80;;;24.40;49.60;;;;;;5006891;28;20234;-65
2023/09/08 06:51:06;;;;;;;3.87;3.67;;;24.40;49.60;;;;;;5007153;28;20718;-61
2023/09/08 06:53:32;;;;;;;4.60;4.30;;;24.40;49.60;;;;;;4992609;28;20226;-64
2023/09/08 06:55:57;;;;;;;4.10;3.90;;;24.40;49.60;;;;;;4999239;28;20230;-66
2023/09/08 06:58:23;;;;;;;3.73;3.53;;;24.40;49.60;;;;;;5001962;28;23758;-63
2023/09/08 07:00:50;;;;;;;3.80;3.60;;;24.40;49.60;;;;;;5002078;28;20302;-67
2023/09/08 07:03:16;;;;;;;4.23;4.03;;;24.40;49.60;;;;;;5006508;28;20226;-63
2023/09/08 07:05:41;;;;;;;3.80;3.60;;;24.40;49.60;;;;;;5004790;28;20471;-61
2023/09/08 07:08:07;;;;;;;3.60;3.40;;;24.40;49.60;;;;;;4999684;28;20326;-68
2023/09/08 07:10:32;;;;;;;3.87;3.67;;;24.40;49.60;;;;;;5006304;28;20246;-70
2023/09/08 07:12:58;;;;;;;3.60;3.40;;;24.40;49.50;;;;;;4991157;28;20591;-63
2023/09/08 07:15:23;;;;;;;4.00;3.80;;;24.40;49.50;;;;;;5001224;28;20831;-68
2023/09/08 07:17:49;;;;;;;4.27;4.07;;;24.40;49.60;;;;;;5002273;28;20797;-69
2023/09/08 07:20:15;;;;;;;4.00;3.80;;;24.40;49.50;;;;;;5000938;28;20287;-70
2023/09/08 07:22:40;;;;;;;3.80;3.60;;;24.40;49.60;;;;;;5002119;28;20281;-66
2023/09/08 07:25:07;;;;;;;4.03;3.83;;;24.40;49.60;;;;;;4984097;28;20228;-64
2023/09/08 07:27:32;;;;;;;3.70;3.50;;;24.40;49.50;;;;;;4984911;28;20230;-64
2023/09/08 07:29:58;;;;;;;3.67;3.47;;;24.40;49.50;;;;;;4988030;28;20464;-70
2023/09/08 07:32:24;;;;;;;3.93;3.73;;;24.40;49.50;;;;;;4984107;28;20226;-65
2023/09/08 07:34:54;;;;;;;3.90;3.63;;;24.40;49.50;;;;;;4990676;28;20219;-68
2023/09/08 07:37:23;;;;;;;3.73;3.53;;;24.50;49.50;;;;;;4987180;28;20544;-62
2023/09/08 07:39:50;;;;;;;3.90;3.70;;;24.50;49.50;;;;;;4987333;28;20477;-67
2023/09/08 07:42:15;;;;;;;3.50;3.30;;;24.50;49.50;;;;;;4983751;28;20540;-62
2023/09/08 07:44:41;;;;;;;3.83;3.63;;;24.50;49.50;;;;;;4984488;28;20479;-64
2023/09/08 07:47:06;;;;;;;4.80;4.50;;;24.50;49.50;;;;;;4985889;28;20215;-61
2023/09/08 07:49:36;;;;;;;3.70;3.50;;;24.50;49.50;;;;;;4990128;28;20234;-65
2023/09/08 07:52:04;;;;;;;4.07;3.87;;;24.50;49.50;;;;;;4988191;28;20323;-63
2023/09/08 07:54:30;;;;;;;3.80;3.60;;;24.50;49.50;;;;;;4990483;28;20555;-61
2023/09/08 07:56:55;;;;;;;3.90;3.70;;;24.50;49.50;;;;;;4990062;28;21137;-65
2023/09/08 07:59:21;;;;;;;3.70;3.50;;;24.50;49.40;;;;;;4989001;28;20222;-63
2023/09/08 08:01:46;;;;;;;3.63;3.43;;;24.50;49.50;;;;;;4984816;28;20227;-62
2023/09/08 08:04:12;;;;;;;3.70;3.50;;;24.50;49.50;;;;;;4983269;28;20219;-70
2023/09/08 08:06:38;;;;;;;4.00;3.80;;;24.50;49.50;;;;;;4985679;28;20226;-65
2023/09/08 08:09:03;;;;;;;3.53;3.43;;;24.50;49.50;;;;;;4990151;28;20234;-69
2023/09/08 08:11:29;;;;;;;3.67;3.47;;;24.50;49.40;;;;;;4990936;28;20228;-65
2023/09/08 08:13:56;;;;;;;3.97;3.77;;;24.50;49.50;;;;;;4986488;28;20220;-65
2023/09/08 08:16:22;;;;;;;4.60;4.30;;;24.50;49.40;;;;;;4985531;28;20612;-64
2023/09/08 08:18:48;;;;;;;4.27;4.07;;;24.50;49.40;;;;;;4985515;28;20991;-66
2023/09/08 08:21:14;;;;;;;4.00;3.80;;;24.50;49.40;;;;;;4989610;28;20304;-65
2023/09/08 08:23:39;;;;;;;3.67;3.47;;;24.50;49.40;;;;;;4989766;28;20579;-62
2023/09/08 08:26:06;;;;;;;3.80;3.60;;;24.50;49.40;;;;;;5007379;28;20227;-62
2023/09/08 08:28:32;;;;;;;3.97;3.77;;;24.50;49.40;;;;;;5007849;28;20483;-65
2023/09/08 08:30:58;;;;;;;3.67;3.47;;;24.50;49.50;;;;;;5009201;28;20443;-71
2023/09/08 08:33:25;;;;;;;3.90;3.70;;;24.50;49.40;;;;;;5001990;28;22439;-67
2023/09/08 08:35:52;;;;;;;3.97;3.77;;;24.50;49.40;;;;;;5011105;28;20640;-62
2023/09/08 08:38:18;;;;;;;3.60;3.40;;;24.50;49.40;;;;;;5007418;28;20468;-69
2023/09/08 08:40:43;;;;;;;3.73;3.50;;;24.50;49.40;;;;;;5008258;28;20837;-66
2023/09/08 08:43:09;;;;;;;3.83;3.63;;;24.50;49.40;;;;;;5005249;28;20309;-66
2023/09/08 08:45:37;;;;;;;4.27;4.07;;;24.50;49.30;;;;;;5008114;28;21846;-65
2023/09/08 08:48:04;;;;;;;3.80;3.60;;;24.50;49.40;;;;;;5008629;28;20226;-68
2023/09/08 08:50:31;;;;;;;4.10;3.90;;;24.50;49.30;;;;;;4998497;28;20469;-64
2023/09/08 08:52:57;;;;;;;3.90;3.70;;;24.50;49.30;;;;;;5008726;28;20627;-63
2023/09/08 08:55:25;;;;;;;3.53;3.33;;;24.50;49.30;;;;;;5007749;28;20466;-61
2023/09/08 08:57:52;;;;;;;3.70;3.50;;;24.50;49.20;;;;;;5006515;28;20235;-63
2023/09/08 09:00:18;;;;;;;3.80;3.60;;;24.50;49.30;;;;;;5007147;28;20646;-63
2023/09/08 09:02:44;;;;;;;3.90;3.70;;;24.50;49.30;;;;;;5007612;28;21004;-68
2023/09/08 09:05:13;;;;;;;3.70;3.50;;;24.50;49.30;;;;;;5004380;28;20322;-65
2023/09/08 09:07:42;;;;;;;3.87;3.67;;;24.50;49.30;;;;;;5009109;28;20504;-65
2023/09/08 09:10:08;;;;;;;3.70;3.50;;;24.50;49.30;;;;;;5005220;28;20541;-62
2023/09/08 09:12:37;;;;;;;4.40;4.03;;;24.50;49.30;;;;;;5004593;28;20469;-63
2023/09/08 09:15:04;;;;;;;4.17;3.97;;;24.50;49.30;;;;;;5004685;28;20934;-65
2023/09/08 09:17:30;;;;;;;3.57;3.37;;;24.50;49.30;;;;;;5003303;28;20522;-70
2023/09/08 09:20:20;;;;;;;3.77;3.57;;;24.50;49.30;;;;;;5006546;28;20443;-64
2023/09/08 09:22:46;;;;;;;3.70;3.50;;;24.60;50.00;;;;;;5005479;28;20607;-65
2023/09/08 09:25:26;;;;;;;3.43;3.23;;;24.50;49.30;;;;;;5005830;28;20484;-67
2023/09/08 09:28:00;;;;;;;3.77;3.57;;;24.50;49.20;;;;;;5005442;28;20503;-69
2023/09/08 09:30:27;;;;;;;4.00;3.80;;;24.50;49.30;;;;;;4983495;28;20511;-61
2023/09/08 09:33:03;;;;;;;3.70;3.50;;;24.50;49.30;;;;;;5001929;28;20464;-70
2023/09/08 09:35:52;;;;;;;3.70;3.50;;;24.50;49.20;;;;;;5008616;28;20464;-64
2023/09/08 09:38:19;;;;;;;3.03;2.93;;;24.50;49.20;;;;;;5002386;28;20508;-72
2023/09/08 09:40:48;;;;;;;4.00;3.80;;;24.50;49.30;;;;;;5000971;28;20460;-65
2023/09/08 09:43:21;;;;;;;3.73;3.50;;;24.50;49.30;;;;;;5005091;28;20471;-64
2023/09/08 09:45:47;;;;;;;3.70;3.50;;;24.50;49.30;;;;;;5003448;28;20469;-67
2023/09/08 09:48:12;;;;;;;4.20;4.00;;;24.50;49.30;;;;;;5004203;28;20966;-63
2023/09/08 09:50:40;;;;;;;3.80;3.60;;;24.50;49.30;;;;;;5006677;28;20241;-64
2023/09/08 09:53:14;;;;;;;3.47;3.37;;;24.50;49.30;;;;;;5006446;28;20224;-65
2023/09/08 09:55:43;;;;;;;3.63;3.43;;;24.50;49.30;;;;;;5007111;28;20466;-69
2023/09/08 09:58:14;;;;;;;4.03;3.83;;;24.50;49.30;;;;;;5006618;28;20471;-63
2023/09/08 10:00:47;;;;;;;3.63;3.43;;;24.50;49.40;;;;;;5004257;28;21056;-67
2023/09/08 10:03:13;;;;;;;3.77;3.57;;;24.50;49.30;;;;;;5004702;28;20486;-63
2023/09/08 10:05:39;;;;;;;3.83;3.63;;;24.50;49.30;;;;;;5008778;28;20463;-67
2023/09/08 10:08:05;;;;;;;3.67;3.47;;;24.50;49.40;;;;;;5007858;28;20460;-64
2023/09/08 10:10:32;;;;;;;4.10;3.90;;;24.50;49.40;;;;;;5005703;28;20732;-65
2023/09/08 10:13:03;;;;;;;3.73;3.53;;;24.50;50.10;;;;;;5005257;28;20254;-69
2023/09/08 10:15:30;;;;;;;3.57;3.37;;;24.60;49.50;;;;;;5007928;28;20469;-66
2023/09/08 10:17:59;;;;;;;3.60;3.40;;;24.50;49.40;;;;;;4990968;28;20455;-70
2023/09/08 10:20:27;;;;;;;3.40;3.20;;;24.50;49.40;;;;;;5000334;28;20578;-71
2023/09/08 10:22:56;;;;;;;3.87;3.67;;;24.60;49.50;;;;;;5002618;28;20460;-63
2023/09/08 10:25:24;;;;;;;3.83;3.60;;;24.50;49.40;;;;;;5004285;28;20532;-68
2023/09/08 10:27:50;;;;;;;3.77;3.57;;;24.50;49.40;;;;;;5003272;28;20471;-69
2023/09/08 10:30:17;;;;;;;4.37;4.17;;;24.50;49.40;;;;;;5003941;28;20484;-65
2023/09/08 10:32:43;;;;;;;3.50;3.30;;;24.50;49.40;;;;;;5005932;28;20693;-65
2023/09/08 10:35:10;;;;;;;3.80;3.60;;;24.60;49.50;;;;;;5005066;28;20534;-67
2023/09/08 10:37:36;;;;;;;4.00;3.80;;;24.60;49.50;;;;;;5009526;28;20810;-65
2023/09/08 10:40:27;;;;;;;4.10;3.80;;;24.60;49.50;;;;;;5005765;28;20469;-71
2023/09/08 10:43:09;;;;;;;3.67;3.47;;;24.60;49.50;;;;;;5004222;28;20470;-67
2023/09/08 10:45:35;;;;;;;3.80;3.60;;;24.60;49.50;;;;;;4999616;28;20473;-65
2023/09/08 10:48:01;;;;;;;4.00;3.70;;;24.60;49.50;;;;;;5005730;28;20534;-69
2023/09/08 10:50:32;;;;;;;3.83;3.63;;;24.60;49.50;;;;;;5006717;28;20349;-72
2023/09/08 10:53:06;;;;;;;4.47;4.27;;;24.60;49.50;;;;;;5006188;28;20226;-65
2023/09/08 10:55:42;;;;;;;4.23;4.03;;;24.60;49.50;;;;;;5002625;28;20520;-67
2023/09/08 10:58:10;;;;;;;3.80;3.60;;;24.60;49.50;;;;;;5002172;28;21211;-64
2023/09/08 11:00:54;;;;;;;4.00;3.80;;;24.60;49.50;;;;;;5002209;28;20472;-69
2023/09/08 11:03:47;;;;;;;3.77;3.57;;;24.60;49.50;;;;;;5005397;28;20987;-63
2023/09/08 11:06:17;;;;;;;4.17;3.97;;;24.60;49.60;;;;;;5008336;28;20479;-63
2023/09/08 11:08:44;;;;;;;3.53;3.33;;;24.60;49.50;;;;;;5009027;28;20455;-69
2023/09/08 11:11:13;;;;;;;3.70;3.50;;;24.60;49.60;;;;;;5006933;28;21356;-63
2023/09/08 11:13:45;;;;;;;3.83;3.63;;;24.60;49.60;;;;;;5003774;28;20472;-66
2023/09/08 11:16:11;;;;;;;3.90;3.70;;;24.60;49.50;;;;;;5006161;28;20469;-62
2023/09/08 11:18:37;;;;;;;3.87;3.67;;;24.60;49.60;;;;;;5007245;28;20517;-73
2023/09/08 11:21:07;;;;;;;4.17;3.97;;;24.60;49.50;;;;;;4990383;28;20222;-64
2023/09/08 11:23:32;;;;;;;3.97;3.77;;;24.60;49.60;;;;;;5007201;28;20218;-64
2023/09/08 11:26:00;;;;;;;3.60;3.40;;;24.60;49.60;;;;;;4988818;28;20470;-70
2023/09/08 11:28:28;;;;;;;3.93;3.73;;;24.60;49.60;;;;;;5002539;28;20234;-66
2023/09/08 11:30:54;;;;;;;4.00;3.80;;;24.60;49.50;;;;;;5004636;28;20461;-64
2023/09/08 11:33:26;;;;;;;3.90;3.70;;;24.60;49.60;;;;;;5006201;28;20491;-63
2023/09/08 11:35:53;;;;;;;4.40;4.20;;;24.60;49.60;;;;;;5007530;28;20463;-69
2023/09/08 11:38:26;;;;;;;4.10;3.90;;;24.60;49.60;;;;;;5005379;28;20464;-65
2023/09/08 11:40:57;;;;;;;3.40;3.20;;;24.60;49.60;;;;;;5005035;28;20552;-70
2023/09/08 11:43:22;;;;;;;3.50;3.30;;;24.60;49.60;;;;;;5004603;28;20469;-62
2023/09/08 11:45:48;;;;;;;3.53;3.23;;;24.60;49.60;;;;;;4989425;28;20478;-65
2023/09/08 11:48:15;;;;;;;3.83;3.63;;;24.60;49.60;;;;;;5004233;28;20614;-62
2023/09/08 11:50:41;;;;;;;3.67;3.47;;;24.60;49.60;;;;;;5006637;28;20321;-65
2023/09/08 11:53:07;;;;;;;4.03;3.83;;;24.60;49.70;;;;;;5005983;28;20479;-66
2023/09/08 11:55:33;;;;;;;3.73;3.53;;;24.60;49.60;;;;;;5009069;28;21568;-61
2023/09/08 11:58:02;;;;;;;3.67;3.47;;;24.60;49.60;;;;;;5006669;28;20305;-63
2023/09/08 12:00:29;;;;;;;3.77;3.57;;;24.60;49.60;;;;;;5006136;28;20449;-67
2023/09/08 12:02:55;;;;;;;3.60;3.40;;;24.60;49.60;;;;;;5002784;28;20456;-61
2023/09/08 12:05:25;;;;;;;3.70;3.50;;;24.60;49.60;;;;;;5007755;28;20561;-61
2023/09/08 12:07:52;;;;;;;3.60;3.40;;;24.60;49.60;;;;;;5005112;28;20962;-62
2023/09/08 12:10:18;;;;;;;3.87;3.67;;;24.60;49.70;;;;;;5007459;28;20515;-61
2023/09/08 12:12:49;;;;;;;3.80;3.60;;;24.60;49.60;;;;;;5002249;28;21229;-63
2023/09/08 12:15:34;;;;;;;3.50;3.30;;;24.60;49.60;;;;;;5005356;28;20223;-67
2023/09/08 12:18:05;;;;;;;3.93;3.73;;;24.70;49.70;;;;;;4983336;28;21948;-66
2023/09/08 12:20:31;;;;;;;4.10;3.90;;;24.60;49.60;;;;;;4987944;28;20467;-61
2023/09/08 12:23:10;;;;;;;3.73;3.53;;;24.70;49.70;;;;;;5007648;28;20491;-67
2023/09/08 12:25:45;;;;;;;4.03;3.83;;;24.60;49.60;;;;;;5000125;28;20478;-67
2023/09/08 12:28:10;;;;;;;4.03;3.83;;;24.60;49.60;;;;;;5005915;28;20451;-65
2023/09/08 12:30:36;;;;;;;4.00;3.80;;;24.70;49.80;;;;;;5006780;28;20609;-68
2023/09/08 12:33:02;;;;;;;3.90;3.70;;;24.70;49.80;;;;;;5000445;28;20225;-63
2023/09/08 12:35:29;;;;;;;4.30;4.10;;;24.70;49.70;;;;;;5004395;28;20227;-63
2023/09/08 12:38:03;;;;;;;3.80;3.60;;;24.60;49.70;;;;;;5012828;28;20448;-63
2023/09/08 12:40:30;;;;;;;3.80;3.60;;;24.70;49.70;;;;;;5008797;28;20508;-61
2023/09/08 12:42:56;;;;;;;3.73;3.53;;;24.70;49.80;;;;;;5009620;28;20460;-66
2023/09/08 12:45:25;;;;;;;4.47;4.27;;;24.70;49.70;;;;;;5015177;28;20457;-61
2023/09/08 12:47:51;;;;;;;4.10;3.90;;;24.70;49.70;;;;;;5009740;28;20679;-65